createdAt,value
2017-01-15T00:00:02.801Z,1009.89
2017-01-15T00:01:14.204Z,1009.95
2017-01-15T00:02:25.604Z,1009.96
2017-01-15T00:03:37.000Z,1009.99
2017-01-15T00:04:48.452Z,1010.03
2017-01-15T00:06:00.051Z,1009.97
2017-01-15T00:07:11.451Z,1010.02
2017-01-15T00:08:22.843Z,1010
2017-01-15T00:09:34.444Z,1010.01
2017-01-15T00:10:45.893Z,1010.02
2017-01-15T00:11:57.515Z,1010.02
2017-01-15T00:13:08.917Z,1010.04
2017-01-15T00:14:20.316Z,1010.03
2017-01-15T00:15:31.722Z,1010.07
2017-01-15T00:16:43.165Z,1010.07
2017-01-15T00:17:54.764Z,1010.07
2017-01-15T00:19:06.166Z,1010.12
2017-01-15T00:20:17.761Z,1010.1
2017-01-15T00:21:29.158Z,1010.11
2017-01-15T00:22:40.606Z,1010.16
2017-01-15T00:23:52.008Z,1010.11
2017-01-15T00:25:03.417Z,1010.15
2017-01-15T00:26:14.849Z,1010.21
2017-01-15T00:27:26.242Z,1010.2
2017-01-15T00:28:37.896Z,1010.2
2017-01-15T00:29:49.491Z,1010.22
2017-01-15T00:31:00.893Z,1010.2
2017-01-15T00:32:12.299Z,1010.2
2017-01-15T00:33:23.705Z,1010.21
2017-01-15T00:34:35.152Z,1010.22
2017-01-15T00:35:46.556Z,1010.21
2017-01-15T00:36:57.982Z,1010.25
2017-01-15T00:38:09.583Z,1010.23
2017-01-15T00:39:20.991Z,1010.23
2017-01-15T00:40:32.431Z,1010.23
2017-01-15T00:41:44.030Z,1010.24
2017-01-15T00:42:55.437Z,1010.21
2017-01-15T00:44:06.835Z,1010.17
2017-01-15T00:45:18.430Z,1010.22
2017-01-15T00:46:29.876Z,1010.19
2017-01-15T00:47:41.278Z,1010.23
2017-01-15T00:48:52.679Z,1010.28
2017-01-15T00:50:04.069Z,1010.25
2017-01-15T00:51:15.470Z,1010.21
2017-01-15T00:52:26.926Z,1010.29
2017-01-15T00:53:38.326Z,1010.23
2017-01-15T00:54:49.722Z,1010.27
2017-01-15T00:56:01.318Z,1010.3
2017-01-15T00:57:12.720Z,1010.32
2017-01-15T00:58:24.181Z,1010.37
2017-01-15T00:59:35.579Z,1010.35
2017-01-15T01:00:46.974Z,1010.35
2017-01-15T01:01:58.367Z,1010.33
2017-01-15T01:03:09.764Z,1010.31
2017-01-15T01:04:21.207Z,1010.34
2017-01-15T01:05:32.611Z,1010.35
2017-01-15T01:06:44.019Z,1010.36
2017-01-15T01:07:55.420Z,1010.38
2017-01-15T01:09:06.824Z,1010.36
2017-01-15T01:10:18.272Z,1010.33
2017-01-15T01:11:29.663Z,1010.34
2017-01-15T01:12:41.462Z,1010.34
2017-01-15T01:13:52.889Z,1010.33
2017-01-15T01:15:04.719Z,1010.42
2017-01-15T01:16:16.165Z,1010.44
2017-01-15T01:17:27.559Z,1010.43
2017-01-15T01:18:38.965Z,1010.41
2017-01-15T01:19:50.773Z,1010.42
2017-01-15T01:21:02.167Z,1010.38
2017-01-15T01:22:13.653Z,1010.44
2017-01-15T01:23:25.051Z,1010.48
2017-01-15T01:24:36.442Z,1010.46
2017-01-15T01:25:47.846Z,1010.46
2017-01-15T01:26:59.249Z,1010.51
2017-01-15T01:28:10.695Z,1010.53
2017-01-15T01:29:22.096Z,1010.56
2017-01-15T01:30:33.491Z,1010.65
2017-01-15T01:31:44.897Z,1010.63
2017-01-15T01:32:56.298Z,1010.68
2017-01-15T01:34:07.742Z,1010.66
2017-01-15T01:35:19.149Z,1010.69
2017-01-15T01:36:30.542Z,1010.71
2017-01-15T01:37:41.946Z,1010.71
2017-01-15T01:38:53.342Z,1010.73
2017-01-15T01:40:04.786Z,1010.7
2017-01-15T01:41:16.182Z,1010.76
2017-01-15T01:42:27.587Z,1010.71
2017-01-15T01:43:38.989Z,1010.72
2017-01-15T01:44:50.387Z,1010.64
2017-01-15T01:46:01.849Z,1010.67
2017-01-15T01:47:13.241Z,1010.64
2017-01-15T01:48:24.631Z,1010.62
2017-01-15T01:49:36.032Z,1010.65
2017-01-15T01:50:47.431Z,1010.65
2017-01-15T01:51:59.077Z,1010.69
2017-01-15T01:53:10.512Z,1010.73
2017-01-15T01:54:22.107Z,1010.77
2017-01-15T01:55:33.507Z,1010.77
2017-01-15T01:56:45.106Z,1010.79
2017-01-15T01:57:56.763Z,1010.79
2017-01-15T01:59:08.369Z,1010.78
2017-01-15T02:00:19.769Z,1010.76
2017-01-15T02:01:31.175Z,1010.8
2017-01-15T02:02:42.575Z,1010.8
2017-01-15T02:03:54.017Z,1010.81
2017-01-15T02:05:05.417Z,1010.8
2017-01-15T02:06:16.814Z,1010.83
2017-01-15T02:07:28.219Z,1010.84
2017-01-15T02:08:39.614Z,1010.87
2017-01-15T02:09:51.068Z,1010.87
2017-01-15T02:11:02.470Z,1010.83
2017-01-15T02:12:13.874Z,1010.84
2017-01-15T02:13:25.482Z,1010.84
2017-01-15T02:14:36.871Z,1010.86
2017-01-15T02:15:48.719Z,1010.87
2017-01-15T02:17:00.126Z,1010.8
2017-01-15T02:18:11.527Z,1010.83
2017-01-15T02:19:22.924Z,1010.83
2017-01-15T02:20:34.316Z,1010.85
2017-01-15T02:21:45.718Z,1010.86
2017-01-15T02:22:57.111Z,1010.82
2017-01-15T02:24:08.511Z,1010.86
2017-01-15T02:25:19.903Z,1010.84
2017-01-15T02:26:31.360Z,1010.91
2017-01-15T02:27:42.754Z,1010.96
2017-01-15T02:28:54.154Z,1010.93
2017-01-15T02:30:05.548Z,1010.88
2017-01-15T02:31:16.956Z,1010.93
2017-01-15T02:32:28.407Z,1010.97
2017-01-15T02:33:39.810Z,1010.96
2017-01-15T02:34:51.414Z,1010.95
2017-01-15T02:36:02.820Z,1010.96
2017-01-15T02:37:14.211Z,1010.95
2017-01-15T02:38:25.654Z,1010.96
2017-01-15T02:39:37.055Z,1010.95
2017-01-15T02:40:48.455Z,1010.95
2017-01-15T02:41:59.883Z,1011.01
2017-01-15T02:43:11.281Z,1010.99
2017-01-15T02:44:22.733Z,1010.96
2017-01-15T02:45:34.133Z,1010.93
2017-01-15T02:46:45.532Z,1010.91
2017-01-15T02:47:57.140Z,1010.92
2017-01-15T02:49:08.745Z,1010.92
2017-01-15T02:50:20.389Z,1010.95
2017-01-15T02:51:31.787Z,1010.97
2017-01-15T02:52:43.817Z,1010.97
2017-01-15T02:53:56.401Z,1010.97
2017-01-15T02:55:07.803Z,1011.04
2017-01-15T02:56:19.267Z,1011.03
2017-01-15T02:57:30.880Z,1011.05
2017-01-15T02:58:42.279Z,1011.02
2017-01-15T02:59:53.884Z,1011.02
2017-01-15T03:01:05.292Z,1011.02
2017-01-15T03:02:16.744Z,1011
2017-01-15T03:03:28.143Z,1011.04
2017-01-15T03:04:39.543Z,1011.03
2017-01-15T03:05:50.947Z,1011.05
2017-01-15T03:07:02.343Z,1011.07
2017-01-15T03:08:13.992Z,1011.06
2017-01-15T03:09:25.385Z,1011.06
2017-01-15T03:10:36.792Z,1011.07
2017-01-15T03:11:48.190Z,1011.13
2017-01-15T03:12:59.576Z,1011.09
2017-01-15T03:14:11.023Z,1011.14
2017-01-15T03:15:22.419Z,1011.13
2017-01-15T03:16:33.820Z,1011.14
2017-01-15T03:17:45.217Z,1011.12
2017-01-15T03:18:56.623Z,1011.18
2017-01-15T03:20:08.078Z,1011.14
2017-01-15T03:21:19.478Z,1011.16
2017-01-15T03:22:31.075Z,1011.11
2017-01-15T03:23:42.671Z,1011.17
2017-01-15T03:24:54.073Z,1011.18
2017-01-15T03:26:05.521Z,1011.21
2017-01-15T03:27:16.923Z,1011.23
2017-01-15T03:28:28.326Z,1011.25
2017-01-15T03:29:39.732Z,1011.23
2017-01-15T03:30:51.344Z,1011.26
2017-01-15T03:32:02.997Z,1011.29
2017-01-15T03:33:14.395Z,1011.27
2017-01-15T03:34:25.792Z,1011.28
2017-01-15T03:35:37.589Z,1011.32
2017-01-15T03:36:48.992Z,1011.25
2017-01-15T03:38:00.439Z,1011.28
2017-01-15T03:39:12.040Z,1011.28
2017-01-15T03:40:23.444Z,1011.23
2017-01-15T03:41:34.845Z,1011.26
2017-01-15T03:42:46.448Z,1011.28
2017-01-15T03:43:57.898Z,1011.29
2017-01-15T03:45:09.300Z,1011.3
2017-01-15T03:46:20.901Z,1011.28
2017-01-15T03:47:32.494Z,1011.32
2017-01-15T03:48:43.904Z,1011.28
2017-01-15T03:49:55.357Z,1011.29
2017-01-15T03:51:06.756Z,1011.32
2017-01-15T03:52:18.159Z,1011.35
2017-01-15T03:53:29.552Z,1011.38
2017-01-15T03:54:41.148Z,1011.36
2017-01-15T03:55:52.599Z,1011.38
2017-01-15T03:57:04.006Z,1011.43
2017-01-15T03:58:15.404Z,1011.39
2017-01-15T03:59:27.010Z,1011.4
2017-01-15T04:00:38.410Z,1011.41
2017-01-15T04:01:49.859Z,1011.41
2017-01-15T04:03:01.463Z,1011.41
2017-01-15T04:04:12.862Z,1011.43
2017-01-15T04:05:24.267Z,1011.43
2017-01-15T04:06:35.667Z,1011.47
2017-01-15T04:07:47.153Z,1011.51
2017-01-15T04:08:58.550Z,1011.54
2017-01-15T04:10:09.949Z,1011.58
2017-01-15T04:11:21.756Z,1011.66
2017-01-15T04:12:33.170Z,1011.63
2017-01-15T04:13:44.623Z,1011.69
2017-01-15T04:14:56.020Z,1011.71
2017-01-15T04:16:07.425Z,1011.7
2017-01-15T04:17:18.830Z,1011.7
2017-01-15T04:18:30.428Z,1011.75
2017-01-15T04:19:41.887Z,1011.75
2017-01-15T04:20:53.294Z,1011.72
2017-01-15T04:22:04.695Z,1011.72
2017-01-15T04:23:16.296Z,1011.69
2017-01-15T04:24:27.903Z,1011.67
2017-01-15T04:25:39.752Z,1011.65
2017-01-15T04:26:51.150Z,1011.67
2017-01-15T04:28:02.757Z,1011.69
2017-01-15T04:29:14.159Z,1011.72
2017-01-15T04:30:25.756Z,1011.68
2017-01-15T04:31:37.407Z,1011.77
2017-01-15T04:32:48.808Z,1011.78
2017-01-15T04:34:00.218Z,1011.77
2017-01-15T04:35:12.217Z,1011.79
2017-01-15T04:36:23.641Z,1011.77
2017-01-15T04:37:35.091Z,1011.79
2017-01-15T04:38:46.492Z,1011.78
2017-01-15T04:39:58.120Z,1011.74
2017-01-15T04:41:09.528Z,1011.8
2017-01-15T04:42:20.915Z,1011.81
2017-01-15T04:43:32.377Z,1011.83
2017-01-15T04:44:43.981Z,1011.81
2017-01-15T04:45:55.384Z,1011.8
2017-01-15T04:47:06.810Z,1011.82
2017-01-15T04:48:18.207Z,1011.86
2017-01-15T04:49:29.652Z,1011.9
2017-01-15T04:50:41.258Z,1011.91
2017-01-15T04:51:53.067Z,1011.93
2017-01-15T04:53:04.463Z,1011.91
2017-01-15T04:54:16.061Z,1011.95
2017-01-15T04:55:27.510Z,1011.98
2017-01-15T04:56:38.915Z,1012.01
2017-01-15T04:57:50.324Z,1012
2017-01-15T04:59:01.723Z,1011.96
2017-01-15T05:00:13.126Z,1011.99
2017-01-15T05:01:24.573Z,1011.96
2017-01-15T05:02:35.972Z,1012.04
2017-01-15T05:03:47.372Z,1012.05
2017-01-15T05:04:58.765Z,1012.03
2017-01-15T05:06:10.175Z,1012.03
2017-01-15T05:07:21.634Z,1012.04
2017-01-15T05:08:33.031Z,1012.05
2017-01-15T05:09:44.432Z,1012.02
2017-01-15T05:10:55.830Z,1012.04
2017-01-15T05:12:07.242Z,1012.03
2017-01-15T05:13:18.685Z,1012.05
2017-01-15T05:14:30.076Z,1012.01
2017-01-15T05:15:41.476Z,1012.07
2017-01-15T05:16:52.870Z,1012.12
2017-01-15T05:18:04.474Z,1012.11
2017-01-15T05:19:15.924Z,1012.15
2017-01-15T05:20:27.331Z,1012.15
2017-01-15T05:21:38.734Z,1012.13
2017-01-15T05:22:50.338Z,1012.13
2017-01-15T05:24:01.733Z,1012.12
2017-01-15T05:25:13.177Z,1012.11
2017-01-15T05:26:24.587Z,1012.11
2017-01-15T05:27:36.189Z,1012.16
2017-01-15T05:28:47.576Z,1012.21
2017-01-15T05:29:58.972Z,1012.24
2017-01-15T05:31:10.624Z,1012.24
2017-01-15T05:32:22.020Z,1012.24
2017-01-15T05:33:33.428Z,1012.24
2017-01-15T05:34:45.021Z,1012.26
2017-01-15T05:35:56.417Z,1012.24
2017-01-15T05:37:08.065Z,1012.25
2017-01-15T05:38:19.667Z,1012.23
2017-01-15T05:39:31.063Z,1012.2
2017-01-15T05:40:42.660Z,1012.26
2017-01-15T05:41:54.251Z,1012.22
2017-01-15T05:43:05.698Z,1012.24
2017-01-15T05:44:17.101Z,1012.27
2017-01-15T05:45:28.508Z,1012.23
2017-01-15T05:46:39.912Z,1012.24
2017-01-15T05:47:51.314Z,1012.26
2017-01-15T05:49:02.764Z,1012.29
2017-01-15T05:50:14.164Z,1012.34
2017-01-15T05:51:25.565Z,1012.36
2017-01-15T05:52:36.962Z,1012.33
2017-01-15T05:53:48.356Z,1012.32
2017-01-15T05:54:59.804Z,1012.3
2017-01-15T05:56:11.210Z,1012.35
2017-01-15T05:57:22.617Z,1012.36
2017-01-15T05:58:34.038Z,1012.39
2017-01-15T05:59:45.832Z,1012.36
2017-01-15T06:00:57.284Z,1012.37
2017-01-15T06:02:08.682Z,1012.37
2017-01-15T06:03:20.107Z,1012.4
2017-01-15T06:04:31.499Z,1012.39
2017-01-15T06:05:43.107Z,1012.4
2017-01-15T06:06:54.559Z,1012.4
2017-01-15T06:08:05.958Z,1012.4
2017-01-15T06:09:17.346Z,1012.37
2017-01-15T06:10:28.745Z,1012.39
2017-01-15T06:11:40.548Z,1012.38
2017-01-15T06:12:52.207Z,1012.4
2017-01-15T06:14:03.607Z,1012.42
2017-01-15T06:15:15.003Z,1012.45
2017-01-15T06:16:26.599Z,1012.41
2017-01-15T06:17:38.001Z,1012.42
2017-01-15T06:18:49.472Z,1012.43
2017-01-15T06:20:00.871Z,1012.52
2017-01-15T06:21:12.268Z,1012.48
2017-01-15T06:22:23.667Z,1012.54
2017-01-15T06:23:35.064Z,1012.54
2017-01-15T06:24:46.547Z,1012.55
2017-01-15T06:25:57.942Z,1012.65
2017-01-15T06:27:09.540Z,1012.64
2017-01-15T06:28:20.935Z,1012.65
2017-01-15T06:29:32.364Z,1012.73
2017-01-15T06:30:43.814Z,1012.75
2017-01-15T06:31:55.224Z,1012.72
2017-01-15T06:33:06.622Z,1012.77
2017-01-15T06:34:18.025Z,1012.74
2017-01-15T06:35:29.421Z,1012.81
2017-01-15T06:36:40.877Z,1012.79
2017-01-15T06:37:52.299Z,1012.79
2017-01-15T06:39:03.702Z,1012.84
2017-01-15T06:40:15.101Z,1012.9
2017-01-15T06:41:26.501Z,1012.87
2017-01-15T06:42:37.948Z,1012.91
2017-01-15T06:43:49.349Z,1012.94
2017-01-15T06:45:00.750Z,1012.96
2017-01-15T06:46:12.150Z,1012.93
2017-01-15T06:47:23.550Z,1012.94
2017-01-15T06:48:34.997Z,1012.96
2017-01-15T06:49:46.410Z,1012.98
2017-01-15T06:50:57.813Z,1013
2017-01-15T06:52:09.215Z,1012.99
2017-01-15T06:53:20.611Z,1013.06
2017-01-15T06:54:32.050Z,1013.05
2017-01-15T06:55:43.443Z,1013.07
2017-01-15T06:56:55.250Z,1013.07
2017-01-15T06:58:06.845Z,1013.09
2017-01-15T06:59:18.250Z,1013.09
2017-01-15T07:00:29.699Z,1013.11
2017-01-15T07:01:41.125Z,1013.12
2017-01-15T07:02:52.517Z,1013.1
2017-01-15T07:04:04.523Z,1013.16
2017-01-15T07:05:16.130Z,1013.18
2017-01-15T07:06:27.805Z,1013.18
2017-01-15T07:07:39.217Z,1013.18
2017-01-15T07:08:50.620Z,1013.2
2017-01-15T07:10:02.212Z,1013.2
2017-01-15T07:11:13.614Z,1013.2
2017-01-15T07:12:25.061Z,1013.27
2017-01-15T07:13:36.660Z,1013.26
2017-01-15T07:14:48.056Z,1013.21
2017-01-15T07:15:59.463Z,1013.25
2017-01-15T07:17:11.056Z,1013.27
2017-01-15T07:18:22.509Z,1013.28
2017-01-15T07:19:33.910Z,1013.32
2017-01-15T07:20:45.309Z,1013.28
2017-01-15T07:21:56.700Z,1013.3
2017-01-15T07:23:08.093Z,1013.32
2017-01-15T07:24:19.546Z,1013.33
2017-01-15T07:25:30.941Z,1013.3
2017-01-15T07:26:42.335Z,1013.28
2017-01-15T07:27:53.729Z,1013.32
2017-01-15T07:29:05.121Z,1013.3
2017-01-15T07:30:16.564Z,1013.31
2017-01-15T07:31:27.961Z,1013.29
2017-01-15T07:32:39.359Z,1013.29
2017-01-15T07:33:50.754Z,1013.3
2017-01-15T07:35:02.181Z,1013.33
2017-01-15T07:36:13.828Z,1013.33
2017-01-15T07:37:25.227Z,1013.34
2017-01-15T07:38:36.622Z,1013.37
2017-01-15T07:39:48.018Z,1013.38
2017-01-15T07:40:59.420Z,1013.37
2017-01-15T07:42:10.898Z,1013.39
2017-01-15T07:43:22.297Z,1013.38
2017-01-15T07:44:33.690Z,1013.41
2017-01-15T07:45:45.095Z,1013.42
2017-01-15T07:46:56.498Z,1013.41
2017-01-15T07:48:07.950Z,1013.49
2017-01-15T07:49:19.350Z,1013.45
2017-01-15T07:50:30.957Z,1013.46
2017-01-15T07:51:42.556Z,1013.49
2017-01-15T07:52:53.965Z,1013.53
2017-01-15T07:54:05.415Z,1013.51
2017-01-15T07:55:16.815Z,1013.54
2017-01-15T07:56:28.208Z,1013.55
2017-01-15T07:57:39.801Z,1013.55
2017-01-15T07:58:51.196Z,1013.58
2017-01-15T08:00:02.647Z,1013.58
2017-01-15T08:01:14.049Z,1013.63
2017-01-15T08:02:25.443Z,1013.57
2017-01-15T08:03:36.837Z,1013.59
2017-01-15T08:04:48.439Z,1013.6
2017-01-15T08:05:59.886Z,1013.59
2017-01-15T08:07:11.488Z,1013.62
2017-01-15T08:08:23.092Z,1013.61
2017-01-15T08:09:34.692Z,1013.66
2017-01-15T08:10:46.102Z,1013.65
2017-01-15T08:11:57.547Z,1013.67
2017-01-15T08:13:08.956Z,1013.72
2017-01-15T08:14:20.362Z,1013.65
2017-01-15T08:15:31.754Z,1013.67
2017-01-15T08:16:43.159Z,1013.68
2017-01-15T08:17:54.624Z,1013.74
2017-01-15T08:19:06.059Z,1013.72
2017-01-15T08:20:17.459Z,1013.72
2017-01-15T08:21:28.859Z,1013.75
2017-01-15T08:22:40.261Z,1013.73
2017-01-15T08:23:51.921Z,1013.77
2017-01-15T08:25:03.322Z,1013.79
2017-01-15T08:26:14.727Z,1013.82
2017-01-15T08:27:26.330Z,1013.82
2017-01-15T08:28:37.731Z,1013.79
2017-01-15T08:29:49.386Z,1013.79
2017-01-15T08:31:00.800Z,1013.84
2017-01-15T08:32:12.201Z,1013.81
2017-01-15T08:33:23.808Z,1013.86
2017-01-15T08:34:35.203Z,1013.87
2017-01-15T08:35:46.652Z,1013.86
2017-01-15T08:36:58.055Z,1013.86
2017-01-15T08:38:09.445Z,1013.86
2017-01-15T08:39:21.067Z,1013.92
2017-01-15T08:40:32.463Z,1013.93
2017-01-15T08:41:43.919Z,1013.92
2017-01-15T08:42:55.317Z,1013.9
2017-01-15T08:44:06.752Z,1013.92
2017-01-15T08:45:18.180Z,1014.01
2017-01-15T08:46:29.582Z,1013.99
2017-01-15T08:47:41.035Z,1014.05
2017-01-15T08:48:52.438Z,1014.07
2017-01-15T08:50:04.049Z,1014.06
2017-01-15T08:51:15.456Z,1014.12
2017-01-15T08:52:26.851Z,1014.12
2017-01-15T08:53:38.297Z,1014.15
2017-01-15T08:54:49.697Z,1014.14
2017-01-15T08:56:01.295Z,1014.19
2017-01-15T08:57:12.696Z,1014.2
2017-01-15T08:58:24.090Z,1014.2
2017-01-15T08:59:35.743Z,1014.24
2017-01-15T09:00:47.137Z,1014.27
2017-01-15T09:01:58.535Z,1014.33
2017-01-15T09:03:09.943Z,1014.22
2017-01-15T09:04:21.351Z,1014.22
2017-01-15T09:05:32.811Z,1014.24
2017-01-15T09:06:44.228Z,1014.25
2017-01-15T09:07:55.832Z,1014.2
2017-01-15T09:09:07.429Z,1014.21
2017-01-15T09:10:18.831Z,1014.22
2017-01-15T09:11:30.278Z,1014.13
2017-01-15T09:12:41.689Z,1014.18
2017-01-15T09:13:53.094Z,1014.19
2017-01-15T09:15:04.691Z,1014.2
2017-01-15T09:16:16.093Z,1014.19
2017-01-15T09:17:27.549Z,1014.21
2017-01-15T09:18:38.973Z,1014.19
2017-01-15T09:19:50.375Z,1014.24
2017-01-15T09:21:01.978Z,1014.27
2017-01-15T09:22:13.389Z,1014.23
2017-01-15T09:23:24.840Z,1014.22
2017-01-15T09:24:36.443Z,1014.22
2017-01-15T09:25:47.845Z,1014.25
2017-01-15T09:26:59.249Z,1014.24
2017-01-15T09:28:10.656Z,1014.25
2017-01-15T09:29:22.309Z,1014.24
2017-01-15T09:30:33.709Z,1014.27
2017-01-15T09:31:45.102Z,1014.29
2017-01-15T09:32:56.705Z,1014.27
2017-01-15T09:34:08.097Z,1014.3
2017-01-15T09:35:19.942Z,1014.32
2017-01-15T09:36:31.346Z,1014.26
2017-01-15T09:37:42.754Z,1014.29
2017-01-15T09:38:54.156Z,1014.37
2017-01-15T09:40:05.558Z,1014.37
2017-01-15T09:41:17.008Z,1014.36
2017-01-15T09:42:28.406Z,1014.35
2017-01-15T09:43:39.798Z,1014.4
2017-01-15T09:44:51.198Z,1014.37
2017-01-15T09:46:02.598Z,1014.38
2017-01-15T09:47:14.058Z,1014.46
2017-01-15T09:48:25.460Z,1014.46
2017-01-15T09:49:36.862Z,1014.47
2017-01-15T09:50:48.270Z,1014.41
2017-01-15T09:51:59.670Z,1014.44
2017-01-15T09:53:11.132Z,1014.43
2017-01-15T09:54:22.540Z,1014.41
2017-01-15T09:55:33.953Z,1014.5
2017-01-15T09:56:45.352Z,1014.49
2017-01-15T09:57:56.789Z,1014.47
2017-01-15T09:59:08.256Z,1014.46
2017-01-15T10:00:19.668Z,1014.41
2017-01-15T10:01:31.086Z,1014.44
2017-01-15T10:02:42.489Z,1014.47
2017-01-15T10:03:54.299Z,1014.5
2017-01-15T10:05:05.959Z,1014.52
2017-01-15T10:06:17.368Z,1014.49
2017-01-15T10:07:28.772Z,1014.54
2017-01-15T10:08:40.195Z,1014.55
2017-01-15T10:09:51.612Z,1014.54
2017-01-15T10:11:03.079Z,1014.55
2017-01-15T10:12:14.693Z,1014.52
2017-01-15T10:13:26.311Z,1014.51
2017-01-15T10:14:37.919Z,1014.49
2017-01-15T10:15:49.345Z,1014.57
2017-01-15T10:17:01.009Z,1014.56
2017-01-15T10:18:12.437Z,1014.51
2017-01-15T10:19:23.880Z,1014.53
2017-01-15T10:20:35.283Z,1014.54
2017-01-15T10:21:46.704Z,1014.53
2017-01-15T10:22:58.171Z,1014.6
2017-01-15T10:24:09.581Z,1014.54
2017-01-15T10:25:21.024Z,1014.59
2017-01-15T10:26:32.447Z,1014.61
2017-01-15T10:27:43.860Z,1014.59
2017-01-15T10:28:55.329Z,1014.64
2017-01-15T10:30:06.942Z,1014.67
2017-01-15T10:31:18.354Z,1014.68
2017-01-15T10:32:29.764Z,1014.68
2017-01-15T10:33:41.184Z,1014.66
2017-01-15T10:34:52.654Z,1014.69
2017-01-15T10:36:04.068Z,1014.72
2017-01-15T10:37:15.688Z,1014.71
2017-01-15T10:38:27.121Z,1014.72
2017-01-15T10:39:38.732Z,1014.75
2017-01-15T10:40:50.198Z,1014.67
2017-01-15T10:42:01.625Z,1014.71
2017-01-15T10:43:13.037Z,1014.65
2017-01-15T10:44:24.481Z,1014.67
2017-01-15T10:45:35.901Z,1014.68
2017-01-15T10:46:47.373Z,1014.68
2017-01-15T10:47:58.993Z,1014.76
2017-01-15T10:49:10.603Z,1014.73
2017-01-15T10:50:22.016Z,1014.78
2017-01-15T10:51:33.431Z,1014.81
2017-01-15T10:52:45.096Z,1014.72
2017-01-15T10:53:56.563Z,1014.75
2017-01-15T10:55:07.975Z,1014.73
2017-01-15T10:56:19.392Z,1014.76
2017-01-15T10:57:30.812Z,1014.76
2017-01-15T10:58:42.278Z,1014.76
2017-01-15T10:59:53.688Z,1014.76
2017-01-15T11:01:05.111Z,1014.75
2017-01-15T11:02:16.525Z,1014.73
2017-01-15T11:03:27.943Z,1014.73
2017-01-15T11:04:39.412Z,1014.75
2017-01-15T11:05:50.834Z,1014.77
2017-01-15T11:07:02.294Z,1014.73
2017-01-15T11:08:13.906Z,1014.69
2017-01-15T11:09:25.527Z,1014.76
2017-01-15T11:10:37.002Z,1014.7
2017-01-15T11:11:48.415Z,1014.74
2017-01-15T11:12:59.825Z,1014.81
2017-01-15T11:14:11.246Z,1014.85
2017-01-15T11:15:22.862Z,1014.9
2017-01-15T11:16:34.328Z,1014.89
2017-01-15T11:17:45.748Z,1014.92
2017-01-15T11:18:57.169Z,1014.89
2017-01-15T11:20:08.584Z,1014.86
2017-01-15T11:21:20.200Z,1014.86
2017-01-15T11:22:31.662Z,1014.97
2017-01-15T11:23:43.083Z,1014.99
2017-01-15T11:24:54.702Z,1014.93
2017-01-15T11:26:06.126Z,1014.94
2017-01-15T11:27:17.552Z,1014.94
2017-01-15T11:28:29.013Z,1014.97
2017-01-15T11:29:40.431Z,1014.91
2017-01-15T11:30:51.842Z,1014.93
2017-01-15T11:32:03.464Z,1014.82
2017-01-15T11:33:14.875Z,1014.81
2017-01-15T11:34:26.341Z,1014.81
2017-01-15T11:35:37.751Z,1014.77
2017-01-15T11:36:49.171Z,1014.85
2017-01-15T11:38:00.578Z,1014.89
2017-01-15T11:39:11.992Z,1014.88
2017-01-15T11:40:23.452Z,1015.03
2017-01-15T11:41:34.868Z,1015.06
2017-01-15T11:42:46.284Z,1015.04
2017-01-15T11:43:57.701Z,1014.97
2017-01-15T11:45:09.120Z,1015.01
2017-01-15T11:46:20.580Z,1014.98
2017-01-15T11:47:32.009Z,1014.92
2017-01-15T11:48:43.429Z,1014.93
2017-01-15T11:49:55.046Z,1014.91
2017-01-15T11:51:06.455Z,1014.92
2017-01-15T11:52:17.992Z,1014.91
2017-01-15T11:53:29.605Z,1014.93
2017-01-15T11:54:41.015Z,1014.91
2017-01-15T11:55:52.428Z,1014.98
2017-01-15T11:57:03.846Z,1014.96
2017-01-15T11:58:15.301Z,1014.99
2017-01-15T11:59:26.711Z,1014.96
2017-01-15T12:00:38.127Z,1014.94
2017-01-15T12:01:49.533Z,1014.96
2017-01-15T12:03:00.942Z,1014.93
2017-01-15T12:04:12.591Z,1014.92
2017-01-15T12:05:24.005Z,1014.95
2017-01-15T12:06:35.623Z,1014.94
2017-01-15T12:07:47.056Z,1014.93
2017-01-15T12:08:58.456Z,1014.9
2017-01-15T12:10:09.917Z,1014.89
2017-01-15T12:11:21.345Z,1014.92
2017-01-15T12:12:32.751Z,1014.93
2017-01-15T12:13:44.162Z,1014.95
2017-01-15T12:14:55.576Z,1014.91
2017-01-15T12:16:07.030Z,1014.91
2017-01-15T12:17:18.437Z,1014.92
2017-01-15T12:18:30.050Z,1014.93
2017-01-15T12:19:41.456Z,1014.89
2017-01-15T12:20:52.849Z,1014.88
2017-01-15T12:22:04.297Z,1014.85
2017-01-15T12:23:15.702Z,1014.86
2017-01-15T12:24:27.329Z,1014.87
2017-01-15T12:25:38.733Z,1014.89
2017-01-15T12:26:50.137Z,1014.85
2017-01-15T12:28:01.587Z,1014.87
2017-01-15T12:29:12.983Z,1014.9
2017-01-15T12:30:24.379Z,1014.88
2017-01-15T12:31:35.781Z,1014.88
2017-01-15T12:32:47.192Z,1014.93
2017-01-15T12:33:58.654Z,1014.91
2017-01-15T12:35:10.067Z,1014.97
2017-01-15T12:36:21.499Z,1014.95
2017-01-15T12:37:33.111Z,1014.96
2017-01-15T12:38:44.516Z,1015.01
2017-01-15T12:39:55.971Z,1015.01
2017-01-15T12:41:07.380Z,1014.98
2017-01-15T12:42:18.789Z,1015.01
2017-01-15T12:43:30.191Z,1015.02
2017-01-15T12:44:41.596Z,1015.04
2017-01-15T12:45:53.056Z,1015
2017-01-15T12:47:04.458Z,1015
2017-01-15T12:48:15.863Z,1015.05
2017-01-15T12:49:27.269Z,1015.04
2017-01-15T12:50:38.676Z,1015.03
2017-01-15T12:51:50.124Z,1015.06
2017-01-15T12:53:01.527Z,1015.05
2017-01-15T12:54:12.925Z,1015.03
2017-01-15T12:55:24.551Z,1015.05
2017-01-15T12:56:35.982Z,1014.99
2017-01-15T12:57:47.428Z,1015.05
2017-01-15T12:58:58.835Z,1015.03
2017-01-15T13:00:10.248Z,1015.02
2017-01-15T13:01:21.870Z,1015.07
2017-01-15T13:02:33.280Z,1015.05
2017-01-15T13:03:44.737Z,1015.06
2017-01-15T13:04:56.146Z,1015.03
2017-01-15T13:06:07.578Z,1015.01
2017-01-15T13:07:19.191Z,1015.01
2017-01-15T13:08:30.592Z,1015.04
2017-01-15T13:09:42.246Z,1015.05
2017-01-15T13:10:53.655Z,1014.99
2017-01-15T13:12:05.067Z,1014.99
2017-01-15T13:13:16.677Z,1015.02
2017-01-15T13:14:28.091Z,1015.06
2017-01-15T13:15:39.750Z,1014.99
2017-01-15T13:16:51.159Z,1015.01
2017-01-15T13:18:02.771Z,1015.02
2017-01-15T13:19:14.386Z,1015.02
2017-01-15T13:20:25.789Z,1015.05
2017-01-15T13:21:37.238Z,1015.04
2017-01-15T13:22:48.646Z,1015.07
2017-01-15T13:24:00.052Z,1015.07
2017-01-15T13:25:11.451Z,1015.05
2017-01-15T13:26:23.055Z,1015.11
2017-01-15T13:27:34.505Z,1015.08
2017-01-15T13:28:45.976Z,1015.09
2017-01-15T13:29:57.384Z,1015.1
2017-01-15T13:31:08.790Z,1015.12
2017-01-15T13:32:20.221Z,1015.13
2017-01-15T13:33:31.669Z,1015.13
2017-01-15T13:34:43.281Z,1015.12
2017-01-15T13:35:54.685Z,1015.12
2017-01-15T13:37:06.097Z,1015.12
2017-01-15T13:38:17.501Z,1015.11
2017-01-15T13:39:28.986Z,1015.13
2017-01-15T13:40:40.383Z,1015.13
2017-01-15T13:41:51.832Z,1015.14
2017-01-15T13:43:03.439Z,1015.18
2017-01-15T13:44:14.836Z,1015.18
2017-01-15T13:45:26.496Z,1015.21
2017-01-15T13:46:37.900Z,1015.18
2017-01-15T13:47:49.308Z,1015.24
2017-01-15T13:49:00.718Z,1015.22
2017-01-15T13:50:12.131Z,1015.22
2017-01-15T13:51:23.592Z,1015.19
2017-01-15T13:52:35.199Z,1015.17
2017-01-15T13:53:46.599Z,1015.21
2017-01-15T13:54:57.997Z,1015.21
2017-01-15T13:56:09.408Z,1015.21
2017-01-15T13:57:20.858Z,1015.21
2017-01-15T13:58:32.459Z,1015.23
2017-01-15T13:59:44.067Z,1015.23
2017-01-15T14:00:55.870Z,1015.27
2017-01-15T14:02:07.280Z,1015.27
2017-01-15T14:03:18.735Z,1015.27
2017-01-15T14:04:30.341Z,1015.28
2017-01-15T14:05:41.741Z,1015.31
2017-01-15T14:06:53.155Z,1015.32
2017-01-15T14:08:04.755Z,1015.35
2017-01-15T14:09:16.208Z,1015.37
2017-01-15T14:10:27.647Z,1015.42
2017-01-15T14:11:39.456Z,1015.38
2017-01-15T14:12:50.857Z,1015.46
2017-01-15T14:14:02.269Z,1015.39
2017-01-15T14:15:13.719Z,1015.44
2017-01-15T14:16:25.133Z,1015.41
2017-01-15T14:17:36.543Z,1015.38
2017-01-15T14:18:47.942Z,1015.36
2017-01-15T14:19:59.550Z,1015.45
2017-01-15T14:21:11.407Z,1015.45
2017-01-15T14:22:22.819Z,1015.43
2017-01-15T14:23:34.427Z,1015.47
2017-01-15T14:24:45.822Z,1015.48
2017-01-15T14:25:57.234Z,1015.51